KSLR

Details ICAO KSLR
Name SULPHUR SPRINGS MUNI
Region United States
Timezone America/Chicago (UTC-5.0)
Plans Departing 5
Arriving 9
Stats Elevation 489 ft / 149 m (AMSL)
Location 33.159832° -95.621146°
Runways 1
Magnetic Variation 2.509° E
Sunrise 2018-05-24 11:18:53 UTC / 2018-05-24 06:18:53 Local
Sunset 2018-05-25 01:22:41 UTC / 2018-05-24 20:22:41 Local
Advertisement - Login to hide

Runways

ID Width Length Bearing (true) Bearing (mag) Surface Threshold Offset Overrun Length
18 75 ft / 23 m 5,014 ft / 1,528 m 189.62° 187.11° Asphalt 0 ft / 0 m 0 ft / 0 m
36 75 ft / 23 m 5,014 ft / 1,528 m 9.62° 7.11° Asphalt 0 ft / 0 m 0 ft / 0 m

Map

Weather


0- 5 10 15 20 25 30 35+ Temperature / ° C

Clouds and Precipitation
Forecast for 2018-05-24 12:00 UTC. Updated 2 hours ago

Ground ~20,000 ft ~40,000 ft Winds

METAR

KSLR 241035Z AUTO 17004KT 10SM CLR 22/20 A3009 RMK AO2 T02160203

TAF

Not found

Frequencies

Recorded 118.35 MHz AWOS 3
Unicom 123.07 MHz CTAF/UNICOM
Warning: Do not use this data for real-world aviation or navigation. No guarantee of current accuracy is given.